createdAt,value
2023-03-03T00:01:28.347Z,46.00
2023-03-03T00:03:56.384Z,41.40
2023-03-03T00:06:24.907Z,47.00
2023-03-03T00:08:52.778Z,37.90
2023-03-03T00:11:20.588Z,43.20
2023-03-03T00:13:50.231Z,40.60
2023-03-03T00:16:18.425Z,46.60
2023-03-03T00:18:48.015Z,42.20
2023-03-03T00:21:44.880Z,43.30
2023-03-03T00:24:21.914Z,41.40
2023-03-03T00:26:57.746Z,43.50
2023-03-03T00:29:35.924Z,41.90
2023-03-03T00:32:42.439Z,42.40
2023-03-03T00:35:35.590Z,42.50
2023-03-03T00:38:14.714Z,44.30
2023-03-03T00:40:42.679Z,39.10
2023-03-03T00:43:24.975Z,43.00
2023-03-03T00:48:27.981Z,67.70
2023-03-03T00:50:58.138Z,68.50
2023-03-03T00:53:29.623Z,75.90
2023-03-03T00:55:58.107Z,70.10
2023-03-03T00:58:27.433Z,70.40
2023-03-03T01:00:56.782Z,70.10
2023-03-03T01:03:28.327Z,61.00
2023-03-03T01:05:56.101Z,61.90
2023-03-03T01:08:24.149Z,72.60
2023-03-03T01:10:54.682Z,58.30
2023-03-03T01:13:25.961Z,55.90
2023-03-03T01:15:54.241Z,63.90
2023-03-03T01:18:22.059Z,70.10
2023-03-03T01:20:49.771Z,66.90
2023-03-03T01:23:18.126Z,59.40
2023-03-03T01:25:45.791Z,56.60
2023-03-03T01:28:13.670Z,50.90
2023-03-03T01:30:41.412Z,53.60
2023-03-03T01:33:09.273Z,46.40
2023-03-03T01:35:37.081Z,55.60
2023-03-03T01:38:04.883Z,51.60
2023-03-03T01:40:33.055Z,49.20
2023-03-03T01:43:01.606Z,54.00
2023-03-03T01:45:57.368Z,52.60
2023-03-03T01:48:37.103Z,52.80
2023-03-03T01:51:15.810Z,48.00
2023-03-03T01:53:48.074Z,48.90
2023-03-03T01:56:16.730Z,53.30
2023-03-03T01:59:01.895Z,47.20
2023-03-03T02:01:31.600Z,47.50
2023-03-03T02:06:35.387Z,47.80
2023-03-03T02:09:26.589Z,46.40
2023-03-03T02:12:01.237Z,46.80
2023-03-03T02:14:29.039Z,49.40
2023-03-03T02:16:57.375Z,46.00
2023-03-03T02:19:33.036Z,50.00
2023-03-03T02:22:05.109Z,54.40
2023-03-03T02:24:44.946Z,48.90
2023-03-03T02:27:14.141Z,46.40
2023-03-03T02:29:42.033Z,49.70
2023-03-03T02:32:10.245Z,45.40
2023-03-03T02:34:50.254Z,46.60
2023-03-03T02:37:19.727Z,49.60
2023-03-03T02:39:47.464Z,46.40
2023-03-03T02:42:23.882Z,47.70
2023-03-03T02:44:54.497Z,46.80
2023-03-03T02:47:22.537Z,47.80
2023-03-03T02:49:50.344Z,44.10
2023-03-03T02:52:19.176Z,43.60
2023-03-03T02:54:47.572Z,46.40
2023-03-03T02:57:15.468Z,44.90
2023-03-03T02:59:43.227Z,50.10
2023-03-03T03:02:13.547Z,45.40
2023-03-03T03:04:42.116Z,48.30
2023-03-03T03:07:11.868Z,48.00
2023-03-03T03:09:40.111Z,44.50
2023-03-03T03:12:08.703Z,43.80
2023-03-03T03:14:36.955Z,46.20
2023-03-03T03:17:05.597Z,41.70
2023-03-03T03:19:33.402Z,39.40
2023-03-03T03:22:02.516Z,40.60
2023-03-03T03:24:30.574Z,39.30
2023-03-03T03:27:02.295Z,35.90
2023-03-03T03:29:30.199Z,43.80
2023-03-03T03:31:58.008Z,52.10
2023-03-03T03:34:25.763Z,47.80
2023-03-03T03:36:54.202Z,43.70
2023-03-03T03:39:22.282Z,47.30
2023-03-03T03:41:50.974Z,53.10
2023-03-03T03:44:18.702Z,41.40
2023-03-03T03:46:46.441Z,45.80
2023-03-03T03:49:14.241Z,46.20
2023-03-03T03:51:42.375Z,45.00
2023-03-03T03:54:13.140Z,43.10
2023-03-03T03:56:41.083Z,52.50
2023-03-03T03:59:09.592Z,39.20
2023-03-03T04:01:38.007Z,43.30
2023-03-03T04:04:06.119Z,49.00
2023-03-03T04:06:34.560Z,47.00
2023-03-03T04:09:03.508Z,44.60
2023-03-03T04:11:31.790Z,43.70
2023-03-03T04:13:59.491Z,39.30
2023-03-03T04:16:27.501Z,42.70
2023-03-03T04:18:56.809Z,40.10
2023-03-03T04:21:25.908Z,46.60
2023-03-03T04:23:54.265Z,45.50
2023-03-03T04:26:22.260Z,42.70
2023-03-03T04:28:50.244Z,46.20
2023-03-03T04:31:20.601Z,49.90
2023-03-03T04:33:49.234Z,45.10
2023-03-03T04:36:17.970Z,41.20
2023-03-03T04:38:45.934Z,46.20
2023-03-03T04:41:14.384Z,50.60
2023-03-03T04:43:43.064Z,44.90
2023-03-03T04:46:12.305Z,49.40
2023-03-03T04:48:40.319Z,43.50
2023-03-03T04:51:08.293Z,47.80
2023-03-03T04:53:38.309Z,49.00
2023-03-03T04:56:06.748Z,45.40
2023-03-03T04:58:34.539Z,50.40
2023-03-03T05:01:02.394Z,49.50
2023-03-03T05:03:30.590Z,47.60
2023-03-03T05:05:58.410Z,51.60
2023-03-03T05:08:26.074Z,51.80
2023-03-03T05:10:54.709Z,49.10
2023-03-03T05:13:22.861Z,51.10
2023-03-03T05:15:57.199Z,58.70
2023-03-03T05:18:26.233Z,50.20
2023-03-03T05:20:54.217Z,54.60
2023-03-03T05:23:22.412Z,52.30
2023-03-03T05:25:50.564Z,47.90
2023-03-03T05:28:18.900Z,47.90
2023-03-03T05:30:47.035Z,57.20
2023-03-03T05:33:16.745Z,51.10
2023-03-03T05:35:45.277Z,51.00
2023-03-03T05:38:13.040Z,52.50
2023-03-03T05:40:40.823Z,55.60
2023-03-03T05:43:08.569Z,58.00
2023-03-03T05:45:36.370Z,58.10
2023-03-03T05:48:04.899Z,51.20
2023-03-03T05:50:33.419Z,58.60
2023-03-03T05:53:01.191Z,58.30
2023-03-03T05:55:28.866Z,54.30
2023-03-03T05:57:56.996Z,51.70
2023-03-03T06:00:24.769Z,54.40
2023-03-03T06:02:54.877Z,62.80
2023-03-03T06:05:22.785Z,53.30
2023-03-03T06:07:50.592Z,48.20
2023-03-03T06:10:18.418Z,56.20
2023-03-03T06:12:46.673Z,61.10
2023-03-03T06:15:14.526Z,53.20
2023-03-03T06:17:42.479Z,49.00
2023-03-03T06:20:11.109Z,53.10
2023-03-03T06:22:39.260Z,62.80
2023-03-03T06:25:07.267Z,54.80
2023-03-03T06:27:35.381Z,53.80
2023-03-03T06:30:04.158Z,54.40
2023-03-03T06:32:32.066Z,50.20
2023-03-03T06:34:59.763Z,47.90
2023-03-03T06:37:27.456Z,47.40
2023-03-03T06:39:55.462Z,51.10
2023-03-03T06:42:24.897Z,46.60
2023-03-03T06:44:52.636Z,48.60
2023-03-03T06:47:20.355Z,40.90
2023-03-03T06:49:48.118Z,47.80
2023-03-03T06:52:22.900Z,45.50
2023-03-03T06:54:55.224Z,38.60
2023-03-03T06:57:33.915Z,45.70
2023-03-03T07:00:14.272Z,47.20
2023-03-03T07:02:42.313Z,43.30
2023-03-03T07:05:15.457Z,46.20
2023-03-03T07:07:44.028Z,41.00
2023-03-03T07:10:28.499Z,41.20
2023-03-03T07:13:02.154Z,45.50
2023-03-03T07:15:36.121Z,48.40
2023-03-03T07:18:29.988Z,43.40
2023-03-03T07:20:57.677Z,50.90
2023-03-03T07:23:31.057Z,22.40
2023-03-03T07:25:58.734Z,42.70
2023-03-03T07:28:29.262Z,37.80
2023-03-03T07:30:58.273Z,49.80
2023-03-03T07:33:29.046Z,42.30
2023-03-03T07:35:59.291Z,45.00
2023-03-03T07:38:37.271Z,46.20
2023-03-03T07:41:17.318Z,44.90
2023-03-03T07:44:29.691Z,52.20
2023-03-03T07:46:57.405Z,41.20
2023-03-03T07:49:33.203Z,42.90
2023-03-03T07:52:01.567Z,34.30
2023-03-03T07:54:40.493Z,41.60
2023-03-03T07:57:14.280Z,47.20
2023-03-03T08:00:06.155Z,48.40
2023-03-03T08:02:47.111Z,23.50
2023-03-03T08:05:34.857Z,44.20
2023-03-03T08:08:23.729Z,30.70
2023-03-03T08:10:54.494Z,42.20
2023-03-03T08:13:35.504Z,38.50
2023-03-03T08:16:09.142Z,36.80
2023-03-03T08:18:38.628Z,26.70
2023-03-03T08:21:13.001Z,43.40
2023-03-03T08:23:41.187Z,41.60
2023-03-03T08:26:09.711Z,42.20
2023-03-03T08:28:37.422Z,36.20
2023-03-03T08:31:16.787Z,41.50
2023-03-03T08:33:47.851Z,23.00
2023-03-03T08:36:15.501Z,30.60
2023-03-03T08:38:43.235Z,38.30
2023-03-03T08:41:11.493Z,29.20
2023-03-03T08:43:39.872Z,29.30
2023-03-03T08:46:10.307Z,29.90
2023-03-03T08:48:38.262Z,16.00
2023-03-03T08:51:06.773Z,35.90
2023-03-03T08:53:36.602Z,47.00
2023-03-03T08:56:05.715Z,39.30
2023-03-03T08:58:35.906Z,40.20
2023-03-03T09:01:04.950Z,39.20
2023-03-03T09:03:33.076Z,38.00
2023-03-03T09:06:00.889Z,37.20
2023-03-03T09:08:28.681Z,28.70
2023-03-03T09:10:56.370Z,26.20
2023-03-03T09:13:24.092Z,18.20
2023-03-03T09:15:51.785Z,24.30
2023-03-03T11:41:58.185Z,30.00
2023-03-03T11:44:52.078Z,20.20
2023-03-03T11:47:39.458Z,26.90
2023-03-03T11:50:16.205Z,20.30
2023-03-03T11:53:05.817Z,12.00
2023-03-03T11:55:37.655Z,21.00
2023-03-03T11:58:14.340Z,25.20
2023-03-03T12:00:51.796Z,31.60
2023-03-03T12:03:35.856Z,26.10
2023-03-03T12:06:25.588Z,20.00
2023-03-03T12:09:12.028Z,21.20
2023-03-03T12:11:49.740Z,32.80
2023-03-03T12:14:37.403Z,25.90
2023-03-03T12:17:23.957Z,30.60
2023-03-03T12:20:03.809Z,21.50
2023-03-03T12:22:35.846Z,25.30
2023-03-03T12:25:21.961Z,25.70
2023-03-03T12:28:15.657Z,22.10
2023-03-03T12:31:07.705Z,9.50
2023-03-03T12:33:51.304Z,11.60
2023-03-03T12:36:30.932Z,11.70
2023-03-03T12:39:34.435Z,12.90
2023-03-03T12:42:41.213Z,14.60
2023-03-03T12:45:14.765Z,12.60
2023-03-03T12:47:51.670Z,21.70
2023-03-03T12:50:39.232Z,11.60
2023-03-03T12:53:27.154Z,8.20
2023-03-03T12:56:06.122Z,15.00
2023-03-03T12:58:56.865Z,6.30
2023-03-03T13:02:12.058Z,11.70
2023-03-03T13:04:56.750Z,19.30
2023-03-03T13:07:42.108Z,8.50
2023-03-03T13:10:12.720Z,11.60
2023-03-03T13:12:50.617Z,11.80
2023-03-03T13:16:06.509Z,9.50
2023-03-03T13:18:54.971Z,17.70
2023-03-03T13:21:33.074Z,7.10
2023-03-03T13:24:19.443Z,11.10
2023-03-03T13:26:56.520Z,13.20
2023-03-03T13:29:34.595Z,12.30
2023-03-03T13:32:12.421Z,9.00
2023-03-03T13:35:08.190Z,13.40
2023-03-03T13:37:42.121Z,9.80
2023-03-03T13:40:12.644Z,9.30
2023-03-03T13:42:59.564Z,7.80
2023-03-03T13:45:37.472Z,13.20
2023-03-03T13:48:14.305Z,8.80
2023-03-03T13:50:48.859Z,15.70
2023-03-03T13:53:46.677Z,19.20
2023-03-03T13:56:23.373Z,15.60
2023-03-03T13:58:59.659Z,15.00
2023-03-03T14:01:45.739Z,11.90
2023-03-03T14:04:53.029Z,19.90
2023-03-03T14:07:43.017Z,10.80
2023-03-03T14:10:18.306Z,7.90
2023-03-03T14:13:15.509Z,9.80
2023-03-03T14:15:56.846Z,11.40
2023-03-03T14:18:35.940Z,11.50
2023-03-03T14:21:11.157Z,15.70
2023-03-03T14:24:03.831Z,15.30
2023-03-03T14:26:31.637Z,12.60
2023-03-03T14:29:22.248Z,13.40
2023-03-03T14:31:50.052Z,9.90
2023-03-03T14:34:23.878Z,11.40
2023-03-03T14:36:57.358Z,8.40
2023-03-03T14:39:34.504Z,14.20
2023-03-03T14:42:12.713Z,19.00
2023-03-03T14:44:46.196Z,8.70
2023-03-03T14:47:22.610Z,8.00
2023-03-03T14:49:51.619Z,4.50
2023-03-03T14:52:23.838Z,17.40
2023-03-03T14:55:00.764Z,10.70
2023-03-03T14:57:41.602Z,7.10
2023-03-03T15:00:12.466Z,11.40
2023-03-03T15:02:45.922Z,9.70
2023-03-03T15:05:20.663Z,9.80
2023-03-03T15:07:53.207Z,10.30
2023-03-03T15:10:36.449Z,9.10
2023-03-03T15:13:29.350Z,12.00
2023-03-03T15:16:00.149Z,15.00
2023-03-03T15:18:34.377Z,9.80
2023-03-03T15:21:08.305Z,12.40
2023-03-03T15:24:01.609Z,17.10
2023-03-03T15:26:52.865Z,11.40
2023-03-03T15:29:37.382Z,13.50
2023-03-03T15:32:31.046Z,12.80
2023-03-03T15:35:20.248Z,7.60
2023-03-03T15:38:30.537Z,8.70
2023-03-03T15:41:23.211Z,11.40
2023-03-03T15:44:32.299Z,10.90
2023-03-03T15:47:19.423Z,8.00
2023-03-03T15:50:03.226Z,10.20
2023-03-03T15:52:39.927Z,10.80
2023-03-03T15:55:13.834Z,6.30
2023-03-03T15:57:57.608Z,17.60
2023-03-03T16:00:55.318Z,16.10
2023-03-03T16:03:36.441Z,13.70
2023-03-03T16:06:12.340Z,15.30
2023-03-03T16:08:53.401Z,14.90
2023-03-03T16:11:34.808Z,11.80
2023-03-03T16:14:08.661Z,11.20
2023-03-03T16:16:56.677Z,14.30
2023-03-03T16:19:47.638Z,9.10
2023-03-03T16:22:24.028Z,17.80
2023-03-03T16:25:06.425Z,17.60
2023-03-03T16:27:46.542Z,15.50
2023-03-03T16:30:27.063Z,16.40
2023-03-03T16:33:07.455Z,14.80
2023-03-03T16:35:46.738Z,13.30
2023-03-03T16:38:27.791Z,17.90
2023-03-03T16:40:58.987Z,23.50
2023-03-03T16:43:26.949Z,16.00
2023-03-03T16:46:04.232Z,13.80
2023-03-03T16:48:56.868Z,34.30
2023-03-03T16:51:39.625Z,16.80
2023-03-03T16:54:15.413Z,27.80
2023-03-03T16:56:49.081Z,24.40
2023-03-03T16:59:19.474Z,29.10
2023-03-03T17:01:56.226Z,23.30
2023-03-03T17:04:41.012Z,30.50
2023-03-03T17:07:17.858Z,14.80
2023-03-03T17:09:58.909Z,31.40
2023-03-03T17:12:43.228Z,25.30
2023-03-03T17:15:43.560Z,22.90
2023-03-03T17:18:38.659Z,22.20
2023-03-03T17:21:35.472Z,16.20
2023-03-03T17:24:13.557Z,19.00
2023-03-03T17:27:02.411Z,16.60
2023-03-03T17:30:03.061Z,17.70
2023-03-03T17:35:55.711Z,18.80
2023-03-03T17:38:38.670Z,21.00
2023-03-03T17:41:23.468Z,25.30
2023-03-03T17:44:07.248Z,17.10
2023-03-03T17:46:55.078Z,12.40
2023-03-03T17:49:45.588Z,22.70
2023-03-03T17:52:39.963Z,21.80
2023-03-03T17:55:26.303Z,19.90
2023-03-03T17:58:12.815Z,14.60
2023-03-03T18:00:43.572Z,18.10
2023-03-03T18:03:45.105Z,17.50
2023-03-03T18:06:31.221Z,19.40
2023-03-03T18:09:14.101Z,22.20
2023-03-03T18:12:03.836Z,22.40
2023-03-03T18:15:09.127Z,24.60
2023-03-03T18:17:52.244Z,19.90
2023-03-03T18:20:44.839Z,25.60
2023-03-03T18:23:27.925Z,23.00
2023-03-03T18:25:58.624Z,22.30
2023-03-03T18:28:50.611Z,26.60
2023-03-03T18:31:23.665Z,21.90
2023-03-03T18:34:02.606Z,22.20
2023-03-03T18:36:31.938Z,18.00
2023-03-03T18:39:03.053Z,21.50
2023-03-03T18:41:32.759Z,30.50
2023-03-03T18:44:23.169Z,25.80
2023-03-03T18:46:53.146Z,21.80
2023-03-03T18:49:46.452Z,25.40
2023-03-03T18:52:25.025Z,22.20
2023-03-03T18:55:10.289Z,27.90
2023-03-03T18:57:38.699Z,28.60
2023-03-03T19:00:27.347Z,24.50
2023-03-03T19:02:58.790Z,31.50
2023-03-03T19:05:35.914Z,27.40
2023-03-03T19:08:19.352Z,22.80
2023-03-03T19:10:55.807Z,23.90
2023-03-03T19:13:32.422Z,26.00
2023-03-03T19:16:18.413Z,27.20
2023-03-03T19:18:46.107Z,21.30
2023-03-03T19:21:30.235Z,41.40
2023-03-03T19:24:04.389Z,33.10
2023-03-03T19:26:32.090Z,31.80
2023-03-03T19:29:18.520Z,11.60
2023-03-03T19:32:01.422Z,31.30
2023-03-03T19:34:53.085Z,27.10
2023-03-03T19:38:03.494Z,20.00
2023-03-03T19:40:46.542Z,27.30
2023-03-03T19:43:33.050Z,24.20
2023-03-03T19:46:30.150Z,28.30
2023-03-03T19:49:13.121Z,22.40
2023-03-03T19:51:51.904Z,23.70
2023-03-03T19:55:01.105Z,16.70
2023-03-03T19:57:42.611Z,18.50
2023-03-03T20:00:43.529Z,18.00
2023-03-03T20:03:50.905Z,22.50
2023-03-03T20:06:37.277Z,21.50
2023-03-03T20:09:14.688Z,24.00
2023-03-03T20:11:59.022Z,22.30
2023-03-03T20:14:50.088Z,23.90
2023-03-03T20:17:20.987Z,23.00
2023-03-03T20:20:00.852Z,28.70
2023-03-03T20:22:42.304Z,23.50
2023-03-03T20:25:35.645Z,15.90
2023-03-03T20:28:24.596Z,15.70
2023-03-03T20:31:11.476Z,15.00
2023-03-03T20:34:04.938Z,21.80
2023-03-03T20:36:48.951Z,23.80
2023-03-03T20:39:38.574Z,19.40
2023-03-03T20:42:22.366Z,19.00
2023-03-03T20:45:05.412Z,19.80
2023-03-03T20:47:35.839Z,21.40
2023-03-03T20:50:40.247Z,19.20
2023-03-03T20:53:46.776Z,21.40
2023-03-03T20:56:33.293Z,22.60
2023-03-03T20:59:27.867Z,24.00
2023-03-03T21:04:42.168Z,13.50
2023-03-03T21:07:24.588Z,28.40
2023-03-03T21:10:11.250Z,14.60
2023-03-03T21:12:39.094Z,19.40
2023-03-03T21:15:31.568Z,20.80
2023-03-03T21:18:00.282Z,16.20
2023-03-03T21:20:33.949Z,23.50
2023-03-03T21:23:02.730Z,21.00
2023-03-03T21:25:54.038Z,19.90
2023-03-03T21:28:26.405Z,21.50
2023-03-03T21:31:09.096Z,23.90
2023-03-03T21:33:57.434Z,24.20
2023-03-03T21:39:30.692Z,22.60
2023-03-03T21:42:07.358Z,26.50
2023-03-03T21:44:38.467Z,23.30
2023-03-03T21:47:12.199Z,24.00
2023-03-03T21:49:48.313Z,23.90
2023-03-03T21:52:18.584Z,20.60
2023-03-03T21:54:48.691Z,22.40
2023-03-03T21:57:16.875Z,22.80
2023-03-03T21:59:44.881Z,27.20
2023-03-03T22:02:12.892Z,24.90
2023-03-03T22:04:41.173Z,19.10
2023-03-03T22:07:10.176Z,24.00
2023-03-03T22:09:38.305Z,18.60
2023-03-03T22:12:09.431Z,24.80
2023-03-03T22:14:37.173Z,19.70
2023-03-03T22:17:04.953Z,18.70
2023-03-03T22:19:34.201Z,20.40
2023-03-03T22:22:01.898Z,21.00
2023-03-03T22:24:29.727Z,24.60
2023-03-03T22:26:57.395Z,22.70
2023-03-03T22:29:25.253Z,25.80
2023-03-03T22:31:53.066Z,17.70
2023-03-03T22:34:20.886Z,24.40
2023-03-03T22:36:48.544Z,22.40
2023-03-03T22:39:16.202Z,17.90
2023-03-03T22:41:43.870Z,21.40
2023-03-03T22:44:11.514Z,19.00
2023-03-03T22:46:39.257Z,19.70
2023-03-03T22:49:07.106Z,18.60
2023-03-03T22:51:34.752Z,18.00
2023-03-03T22:54:02.472Z,16.60
2023-03-03T22:56:30.149Z,17.30
2023-03-03T22:58:57.850Z,16.30
2023-03-03T23:01:25.586Z,16.40
2023-03-03T23:03:53.266Z,16.80
2023-03-03T23:06:20.927Z,19.20
2023-03-03T23:08:48.594Z,18.50
2023-03-03T23:11:16.342Z,14.10
2023-03-03T23:13:43.999Z,17.90
2023-03-03T23:16:11.810Z,21.00
2023-03-03T23:18:39.586Z,22.30
2023-03-03T23:21:07.306Z,15.10
2023-03-03T23:23:35.052Z,15.00
2023-03-03T23:26:03.075Z,14.00
2023-03-03T23:28:30.788Z,19.80
2023-03-03T23:30:58.674Z,12.50
2023-03-03T23:33:26.492Z,20.60
2023-03-03T23:35:55.206Z,15.80
2023-03-03T23:38:23.077Z,16.30
2023-03-03T23:40:51.079Z,14.80
2023-03-03T23:43:18.895Z,15.80
2023-03-03T23:45:48.835Z,14.00
2023-03-03T23:48:17.051Z,15.50
2023-03-03T23:50:44.936Z,15.80
2023-03-03T23:53:13.162Z,18.60
2023-03-03T23:55:41.518Z,17.50
2023-03-03T23:58:09.699Z,18.80
